sensor_id;sensor_type;location;lat;lon;timestamp;pressure;altitude;pressure_sealevel;temperature;humidity
7170;BME280;3626;42.656;23.312;2023-07-13T00:00:04;94816.81;;;21.31;99.64
7170;BME280;3626;42.656;23.312;2023-07-13T00:00:12;94816.00;;;21.30;99.70
7170;BME280;3626;42.656;23.312;2023-07-13T00:00:21;94813.38;;;21.30;99.96
7170;BME280;3626;42.656;23.312;2023-07-13T00:00:27;94814.41;;;21.29;99.90
7170;BME280;3626;42.656;23.312;2023-07-13T00:00:33;94820.47;;;21.30;99.81
7170;BME280;3626;42.656;23.312;2023-07-13T00:00:39;94815.47;;;21.28;99.82
7170;BME280;3626;42.656;23.312;2023-07-13T00:00:46;94821.50;;;21.29;99.65
7170;BME280;3626;42.656;23.312;2023-07-13T00:00:52;94818.09;;;21.28;99.68
7170;BME280;3626;42.656;23.312;2023-07-13T00:00:58;94813.84;;;21.27;99.59
7170;BME280;3626;42.656;23.312;2023-07-13T00:01:04;94813.84;;;21.27;99.47
7170;BME280;3626;42.656;23.312;2023-07-13T00:01:11;94812.25;;;21.26;99.29
7170;BME280;3626;42.656;23.312;2023-07-13T00:01:20;94820.13;;;21.26;99.06
7170;BME280;3626;42.656;23.312;2023-07-13T00:01:27;94816.69;;;21.26;98.85
7170;BME280;3626;42.656;23.312;2023-07-13T00:01:33;94818.53;;;21.25;98.46
7170;BME280;3626;42.656;23.312;2023-07-13T00:01:39;94812.47;;;21.25;98.24
7170;BME280;3626;42.656;23.312;2023-07-13T00:01:45;94817.72;;;21.25;98.13
7170;BME280;3626;42.656;23.312;2023-07-13T00:01:53;94815.91;;;21.25;97.90
7170;BME280;3626;42.656;23.312;2023-07-13T00:01:59;94817.72;;;21.25;97.55
7170;BME280;3626;42.656;23.312;2023-07-13T00:02:05;94815.91;;;21.25;97.49
7170;BME280;3626;42.656;23.312;2023-07-13T00:02:12;94810.66;;;21.25;97.15
7170;BME280;3626;42.656;23.312;2023-07-13T00:02:17;94816.94;;;21.24;97.02
7170;BME280;3626;42.656;23.312;2023-07-13T00:02:24;94810.06;;;21.23;96.75
7170;BME280;3626;42.656;23.312;2023-07-13T00:02:30;94812.69;;;21.23;96.57
7170;BME280;3626;42.656;23.312;2023-07-13T00:02:38;94815.31;;;21.23;96.49
7170;BME280;3626;42.656;23.312;2023-07-13T00:02:44;94811.09;;;21.22;96.25
7170;BME280;3626;42.656;23.312;2023-07-13T00:02:50;94813.72;;;21.22;96.12
7170;BME280;3626;42.656;23.312;2023-07-13T00:02:59;94815.78;;;21.20;95.91
7170;BME280;3626;42.656;23.312;2023-07-13T00:03:05;94814.75;;;21.21;95.65
7170;BME280;3626;42.656;23.312;2023-07-13T00:03:11;94807.91;;;21.20;95.37
7170;BME280;3626;42.656;23.312;2023-07-13T00:03:18;94813.16;;;21.20;95.25
7170;BME280;3626;42.656;23.312;2023-07-13T00:03:27;94813.16;;;21.20;95.11
7170;BME280;3626;42.656;23.312;2023-07-13T00:03:33;94813.16;;;21.20;95.04
7170;BME280;3626;42.656;23.312;2023-07-13T00:03:40;94815.78;;;21.20;94.91
7170;BME280;3626;42.656;23.312;2023-07-13T00:03:47;94813.16;;;21.20;94.86
7170;BME280;3626;42.656;23.312;2023-07-13T00:03:53;94810.53;;;21.20;94.86
7170;BME280;3626;42.656;23.312;2023-07-13T00:03:59;94814.75;;;21.21;94.63
7170;BME280;3626;42.656;23.312;2023-07-13T00:04:05;94810.53;;;21.20;94.21
7170;BME280;3626;42.656;23.312;2023-07-13T00:04:11;94812.34;;;21.19;94.18
7170;BME280;3626;42.656;23.312;2023-07-13T00:04:18;94814.75;;;21.21;94.00
7170;BME280;3626;42.656;23.312;2023-07-13T00:04:25;94816.59;;;21.20;93.96
7170;BME280;3626;42.656;23.312;2023-07-13T00:04:31;94817.38;;;21.21;93.91
7170;BME280;3626;42.656;23.312;2023-07-13T00:04:37;94815.56;;;21.21;93.71
7170;BME280;3626;42.656;23.312;2023-07-13T00:04:43;94809.50;;;21.21;93.53
7170;BME280;3626;42.656;23.312;2023-07-13T00:04:49;94811.09;;;21.22;93.68
7170;BME280;3626;42.656;23.312;2023-07-13T00:04:58;94809.28;;;21.22;93.42
7170;BME280;3626;42.656;23.312;2023-07-13T00:05:05;94810.06;;;21.23;93.26
7170;BME280;3626;42.656;23.312;2023-07-13T00:05:12;94812.69;;;21.23;93.62
7170;BME280;3626;42.656;23.312;2023-07-13T00:05:18;94815.31;;;21.23;93.69
7170;BME280;3626;42.656;23.312;2023-07-13T00:05:24;94814.53;;;21.22;93.59
7170;BME280;3626;42.656;23.312;2023-07-13T00:05:30;94816.34;;;21.22;93.76
7170;BME280;3626;42.656;23.312;2023-07-13T00:05:36;94816.34;;;21.22;93.79
7170;BME280;3626;42.656;23.312;2023-07-13T00:05:42;94815.56;;;21.21;93.85
7170;BME280;3626;42.656;23.312;2023-07-13T00:05:57;94812.94;;;21.21;93.99
7170;BME280;3626;42.656;23.312;2023-07-13T00:06:03;94809.50;;;21.21;94.03
7170;BME280;3626;42.656;23.312;2023-07-13T00:06:09;94806.88;;;21.21;93.97
7170;BME280;3626;42.656;23.312;2023-07-13T00:06:15;94812.13;;;21.21;93.80
7170;BME280;3626;42.656;23.312;2023-07-13T00:06:21;94812.94;;;21.21;93.85
7170;BME280;3626;42.656;23.312;2023-07-13T00:06:27;94814.75;;;21.21;93.79
7170;BME280;3626;42.656;23.312;2023-07-13T00:06:38;94811.34;;;21.20;93.50
7170;BME280;3626;42.656;23.312;2023-07-13T00:06:44;94814.75;;;21.21;93.55
7170;BME280;3626;42.656;23.312;2023-07-13T00:06:53;94814.75;;;21.21;93.62
7170;BME280;3626;42.656;23.312;2023-07-13T00:06:59;94812.13;;;21.21;93.46
7170;BME280;3626;42.656;23.312;2023-07-13T00:07:06;94813.16;;;21.20;93.50
7170;BME280;3626;42.656;23.312;2023-07-13T00:07:13;94811.34;;;21.20;93.44
7170;BME280;3626;42.656;23.312;2023-07-13T00:07:19;94813.16;;;21.20;93.40
7170;BME280;3626;42.656;23.312;2023-07-13T00:07:25;94807.09;;;21.19;93.32
7170;BME280;3626;42.656;23.312;2023-07-13T00:07:31;94809.72;;;21.19;93.56
7170;BME280;3626;42.656;23.312;2023-07-13T00:07:37;94810.53;;;21.20;93.54
7170;BME280;3626;42.656;23.312;2023-07-13T00:07:43;94808.13;;;21.18;93.52
7170;BME280;3626;42.656;23.312;2023-07-13T00:07:51;94812.34;;;21.19;93.57
7170;BME280;3626;42.656;23.312;2023-07-13T00:07:58;94811.53;;;21.19;93.58
7170;BME280;3626;42.656;23.312;2023-07-13T00:08:04;94806.28;;;21.19;93.58
7170;BME280;3626;42.656;23.312;2023-07-13T00:08:10;94807.09;;;21.19;93.75
7170;BME280;3626;42.656;23.312;2023-07-13T00:08:17;94811.53;;;21.19;93.62
7170;BME280;3626;42.656;23.312;2023-07-13T00:08:23;94815.19;;;21.18;93.69
7170;BME280;3626;42.656;23.312;2023-07-13T00:08:30;94807.31;;;21.18;93.69
7170;BME280;3626;42.656;23.312;2023-07-13T00:08:38;94805.50;;;21.18;93.85
7170;BME280;3626;42.656;23.312;2023-07-13T00:08:44;94807.31;;;21.18;93.85
7170;BME280;3626;42.656;23.312;2023-07-13T00:08:54;94810.75;;;21.18;93.90
7170;BME280;3626;42.656;23.312;2023-07-13T00:09:00;94811.53;;;21.19;93.92
7170;BME280;3626;42.656;23.312;2023-07-13T00:09:06;94810.75;;;21.18;94.14
7170;BME280;3626;42.656;23.312;2023-07-13T00:09:13;94813.38;;;21.18;94.10
7170;BME280;3626;42.656;23.312;2023-07-13T00:09:20;94812.56;;;21.18;94.04
7170;BME280;3626;42.656;23.312;2023-07-13T00:09:27;94810.75;;;21.18;93.93
7170;BME280;3626;42.656;23.312;2023-07-13T00:09:33;94805.50;;;21.18;93.95
7170;BME280;3626;42.656;23.312;2023-07-13T00:09:39;94807.31;;;21.18;93.97
7170;BME280;3626;42.656;23.312;2023-07-13T00:09:46;94808.13;;;21.18;93.82
7170;BME280;3626;42.656;23.312;2023-07-13T00:09:52;94809.94;;;21.18;93.80
7170;BME280;3626;42.656;23.312;2023-07-13T00:09:58;94807.31;;;21.18;93.88
7170;BME280;3626;42.656;23.312;2023-07-13T00:10:05;94807.56;;;21.16;93.52
7170;BME280;3626;42.656;23.312;2023-07-13T00:10:12;94808.34;;;21.17;93.64
7170;BME280;3626;42.656;23.312;2023-07-13T00:10:18;94812.81;;;21.16;93.70
7170;BME280;3626;42.656;23.312;2023-07-13T00:10:25;94815.44;;;21.16;93.59
7170;BME280;3626;42.656;23.312;2023-07-13T00:10:32;94808.34;;;21.17;93.62
7170;BME280;3626;42.656;23.312;2023-07-13T00:10:41;94817.28;;;21.16;93.58
7170;BME280;3626;42.656;23.312;2023-07-13T00:10:47;94812.81;;;21.16;93.55
7170;BME280;3626;42.656;23.312;2023-07-13T00:10:54;94808.59;;;21.15;93.64
7170;BME280;3626;42.656;23.312;2023-07-13T00:11:00;94805.75;;;21.17;93.53
7170;BME280;3626;42.656;23.312;2023-07-13T00:11:06;94810.19;;;21.16;93.38
7170;BME280;3626;42.656;23.312;2023-07-13T00:11:13;94816.47;;;21.15;93.50
7170;BME280;3626;42.656;23.312;2023-07-13T00:11:19;94819.91;;;21.16;93.48
7170;BME280;3626;42.656;23.312;2023-07-13T00:11:25;94812.03;;;21.16;93.66
7170;BME280;3626;42.656;23.312;2023-07-13T00:11:31;94805.97;;;21.15;93.58
7170;BME280;3626;42.656;23.312;2023-07-13T00:11:37;94809.41;;;21.16;93.53
7170;BME280;3626;42.656;23.312;2023-07-13T00:11:44;94816.47;;;21.15;93.48
7170;BME280;3626;42.656;23.312;2023-07-13T00:11:55;94811.44;;;21.14;93.43
7170;BME280;3626;42.656;23.312;2023-07-13T00:12:02;94818.28;;;21.15;93.35
7170;BME280;3626;42.656;23.312;2023-07-13T00:12:22;94809.59;;;21.14;93.44
7170;BME280;3626;42.656;23.312;2023-07-13T00:12:30;94811.44;;;21.14;93.17
7170;BME280;3626;42.656;23.312;2023-07-13T00:12:38;94813.03;;;21.15;93.12
7170;BME280;3626;42.656;23.312;2023-07-13T00:12:44;94815.66;;;21.15;93.13
7170;BME280;3626;42.656;23.312;2023-07-13T00:12:50;94815.66;;;21.15;93.28
7170;BME280;3626;42.656;23.312;2023-07-13T00:13:00;94813.84;;;21.15;93.16
7170;BME280;3626;42.656;23.312;2023-07-13T00:13:06;94806.97;;;21.14;93.04
7170;BME280;3626;42.656;23.312;2023-07-13T00:13:12;94811.22;;;21.15;93.04
7170;BME280;3626;42.656;23.312;2023-07-13T00:13:18;94811.22;;;21.15;92.86
7170;BME280;3626;42.656;23.312;2023-07-13T00:13:24;94808.59;;;21.15;93.05
7170;BME280;3626;42.656;23.312;2023-07-13T00:13:31;94809.41;;;21.16;93.00
7170;BME280;3626;42.656;23.312;2023-07-13T00:13:37;94809.41;;;21.16;92.90
7170;BME280;3626;42.656;23.312;2023-07-13T00:13:44;94814.66;;;21.16;92.88
7170;BME280;3626;42.656;23.312;2023-07-13T00:13:56;94808.59;;;21.15;92.92
7170;BME280;3626;42.656;23.312;2023-07-13T00:14:02;94809.41;;;21.16;92.78
7170;BME280;3626;42.656;23.312;2023-07-13T00:14:09;94813.84;;;21.15;92.75
7170;BME280;3626;42.656;23.312;2023-07-13T00:14:15;94807.78;;;21.15;92.82
7170;BME280;3626;42.656;23.312;2023-07-13T00:14:21;94809.41;;;21.16;92.65
7170;BME280;3626;42.656;23.312;2023-07-13T00:14:28;94807.78;;;21.15;92.83
7170;BME280;3626;42.656;23.312;2023-07-13T00:14:34;94810.19;;;21.16;92.89
7170;BME280;3626;42.656;23.312;2023-07-13T00:14:40;94808.59;;;21.15;92.82
7170;BME280;3626;42.656;23.312;2023-07-13T00:14:46;94806.78;;;21.16;92.85
7170;BME280;3626;42.656;23.312;2023-07-13T00:14:52;94810.97;;;21.17;92.63
7170;BME280;3626;42.656;23.312;2023-07-13T00:15:00;94804.16;;;21.16;92.73
7170;BME280;3626;42.656;23.312;2023-07-13T00:15:11;94813.59;;;21.17;92.59
7170;BME280;3626;42.656;23.312;2023-07-13T00:15:20;94802.31;;;21.16;92.55
7170;BME280;3626;42.656;23.312;2023-07-13T00:15:28;94808.34;;;21.17;92.50
7170;BME280;3626;42.656;23.312;2023-07-13T00:15:37;94808.59;;;21.15;92.60
7170;BME280;3626;42.656;23.312;2023-07-13T00:15:46;94811.22;;;21.15;92.61
7170;BME280;3626;42.656;23.312;2023-07-13T00:15:52;94805.97;;;21.15;92.43
7170;BME280;3626;42.656;23.312;2023-07-13T00:15:59;94812.03;;;21.16;92.42
7170;BME280;3626;42.656;23.312;2023-07-13T00:16:07;94809.41;;;21.16;92.47
7170;BME280;3626;42.656;23.312;2023-07-13T00:16:14;94812.03;;;21.16;92.43
7170;BME280;3626;42.656;23.312;2023-07-13T00:16:20;94811.22;;;21.15;92.44
7170;BME280;3626;42.656;23.312;2023-07-13T00:16:26;94808.34;;;21.17;92.22
7170;BME280;3626;42.656;23.312;2023-07-13T00:16:33;94805.75;;;21.17;92.45
7170;BME280;3626;42.656;23.312;2023-07-13T00:16:39;94812.03;;;21.16;92.47
7170;BME280;3626;42.656;23.312;2023-07-13T00:16:49;94814.66;;;21.16;93.02
7170;BME280;3626;42.656;23.312;2023-07-13T00:16:55;94808.34;;;21.17;93.23
7170;BME280;3626;42.656;23.312;2023-07-13T00:17:01;94811.22;;;21.15;93.88
7170;BME280;3626;42.656;23.312;2023-07-13T00:17:07;94812.81;;;21.16;94.52
7170;BME280;3626;42.656;23.312;2023-07-13T00:17:13;94819.91;;;21.16;95.22
7170;BME280;3626;42.656;23.312;2023-07-13T00:17:19;94811.22;;;21.15;95.56
7170;BME280;3626;42.656;23.312;2023-07-13T00:17:25;94810.41;;;21.15;95.95
7170;BME280;3626;42.656;23.312;2023-07-13T00:17:31;94810.41;;;21.15;96.21
7170;BME280;3626;42.656;23.312;2023-07-13T00:17:37;94812.22;;;21.14;96.39
7170;BME280;3626;42.656;23.312;2023-07-13T00:17:43;94815.66;;;21.15;96.55
7170;BME280;3626;42.656;23.312;2023-07-13T00:17:50;94808.81;;;21.14;96.80
7170;BME280;3626;42.656;23.312;2023-07-13T00:17:59;94813.50;;;21.12;97.05
7170;BME280;3626;42.656;23.312;2023-07-13T00:18:06;94810.28;;;21.10;97.26
7170;BME280;3626;42.656;23.312;2023-07-13T00:18:12;94809.50;;;21.09;97.25
7170;BME280;3626;42.656;23.312;2023-07-13T00:18:18;94808.69;;;21.09;97.29
7170;BME280;3626;42.656;23.312;2023-07-13T00:18:24;94809.72;;;21.08;97.39
7170;BME280;3626;42.656;23.312;2023-07-13T00:18:30;94812.34;;;21.08;97.38
7170;BME280;3626;42.656;23.312;2023-07-13T00:18:36;94802.84;;;21.07;97.39
7170;BME280;3626;42.656;23.312;2023-07-13T00:18:43;94807.31;;;21.06;97.27
7170;BME280;3626;42.656;23.312;2023-07-13T00:18:49;94809.13;;;21.06;97.24
7170;BME280;3626;42.656;23.312;2023-07-13T00:18:55;94805.72;;;21.05;97.26
7170;BME280;3626;42.656;23.312;2023-07-13T00:19:01;94812.78;;;21.05;97.16
7170;BME280;3626;42.656;23.312;2023-07-13T00:19:07;94804.13;;;21.04;96.80
7170;BME280;3626;42.656;23.312;2023-07-13T00:19:13;94808.34;;;21.05;96.94
7170;BME280;3626;42.656;23.312;2023-07-13T00:19:20;94808.34;;;21.05;96.90
7170;BME280;3626;42.656;23.312;2023-07-13T00:19:26;94804.91;;;21.05;96.92
7170;BME280;3626;42.656;23.312;2023-07-13T00:19:32;94811.75;;;21.06;96.99
7170;BME280;3626;42.656;23.312;2023-07-13T00:19:38;94806.50;;;21.06;97.00
7170;BME280;3626;42.656;23.312;2023-07-13T00:19:43;94800.47;;;21.05;96.78
7170;BME280;3626;42.656;23.312;2023-07-13T00:19:49;94806.50;;;21.06;96.80
7170;BME280;3626;42.656;23.312;2023-07-13T00:19:56;94812.00;;;21.04;96.73
7170;BME280;3626;42.656;23.312;2023-07-13T00:20:07;94811.75;;;21.06;96.55
7170;BME280;3626;42.656;23.312;2023-07-13T00:20:13;94804.91;;;21.05;96.46
7170;BME280;3626;42.656;23.312;2023-07-13T00:20:20;94808.34;;;21.05;96.44
7170;BME280;3626;42.656;23.312;2023-07-13T00:20:27;94804.91;;;21.05;96.32
7170;BME280;3626;42.656;23.312;2023-07-13T00:20:33;94806.75;;;21.04;96.13
7170;BME280;3626;42.656;23.312;2023-07-13T00:20:39;94807.53;;;21.05;96.13
7170;BME280;3626;42.656;23.312;2023-07-13T00:20:46;94810.16;;;21.05;95.90
7170;BME280;3626;42.656;23.312;2023-07-13T00:20:52;94799.69;;;21.05;95.81
7170;BME280;3626;42.656;23.312;2023-07-13T00:20:58;94799.69;;;21.05;95.82
7170;BME280;3626;42.656;23.312;2023-07-13T00:21:11;94804.91;;;21.05;95.80
7170;BME280;3626;42.656;23.312;2023-07-13T00:21:17;94803.88;;;21.06;95.47
7170;BME280;3626;42.656;23.312;2023-07-13T00:21:23;94806.50;;;21.06;95.61
7170;BME280;3626;42.656;23.312;2023-07-13T00:21:29;94807.31;;;21.06;95.51
7170;BME280;3626;42.656;23.312;2023-07-13T00:21:35;94811.75;;;21.06;95.47
7170;BME280;3626;42.656;23.312;2023-07-13T00:21:42;94812.34;;;21.08;95.41
7170;BME280;3626;42.656;23.312;2023-07-13T00:21:49;94806.31;;;21.07;95.36
7170;BME280;3626;42.656;23.312;2023-07-13T00:21:55;94804.47;;;21.08;95.31
7170;BME280;3626;42.656;23.312;2023-07-13T00:22:01;94809.72;;;21.08;95.27
7170;BME280;3626;42.656;23.312;2023-07-13T00:22:07;94804.47;;;21.08;95.19
7170;BME280;3626;42.656;23.312;2023-07-13T00:22:13;94806.06;;;21.09;95.13
7170;BME280;3626;42.656;23.312;2023-07-13T00:22:19;94807.91;;;21.08;95.20
7170;BME280;3626;42.656;23.312;2023-07-13T00:22:25;94812.13;;;21.09;95.24
7170;BME280;3626;42.656;23.312;2023-07-13T00:22:31;94814.75;;;21.09;95.34
7170;BME280;3626;42.656;23.312;2023-07-13T00:22:37;94806.88;;;21.09;95.26
7170;BME280;3626;42.656;23.312;2023-07-13T00:22:43;94814.75;;;21.09;95.30
7170;BME280;3626;42.656;23.312;2023-07-13T00:22:49;94814.75;;;21.09;95.35
7170;BME280;3626;42.656;23.312;2023-07-13T00:22:55;94814.75;;;21.09;95.32
7170;BME280;3626;42.656;23.312;2023-07-13T00:23:02;94802.41;;;21.10;95.47
7170;BME280;3626;42.656;23.312;2023-07-13T00:23:08;94808.69;;;21.09;95.29
7170;BME280;3626;42.656;23.312;2023-07-13T00:23:14;94807.66;;;21.10;95.28
7170;BME280;3626;42.656;23.312;2023-07-13T00:23:20;94806.06;;;21.09;95.40
7170;BME280;3626;42.656;23.312;2023-07-13T00:23:26;94811.31;;;21.09;95.40
7170;BME280;3626;42.656;23.312;2023-07-13T00:23:32;94801.84;;;21.08;95.50
7170;BME280;3626;42.656;23.312;2023-07-13T00:23:41;94805.28;;;21.08;95.41
7170;BME280;3626;42.656;23.312;2023-07-13T00:23:49;94811.56;;;21.07;95.53
7170;BME280;3626;42.656;23.312;2023-07-13T00:23:55;94802.84;;;21.07;95.43
7170;BME280;3626;42.656;23.312;2023-07-13T00:24:01;94799.22;;;21.08;95.51
7170;BME280;3626;42.656;23.312;2023-07-13T00:24:10;94809.72;;;21.08;95.38
7170;BME280;3626;42.656;23.312;2023-07-13T00:24:18;94804.47;;;21.08;95.48
7170;BME280;3626;42.656;23.312;2023-07-13T00:24:28;94807.09;;;21.08;95.42
7170;BME280;3626;42.656;23.312;2023-07-13T00:24:35;94802.84;;;21.07;95.53
7170;BME280;3626;42.656;23.312;2023-07-13T00:24:44;94801.06;;;21.07;95.24
7170;BME280;3626;42.656;23.312;2023-07-13T00:24:51;94805.47;;;21.07;95.22
7170;BME280;3626;42.656;23.312;2023-07-13T00:24:57;94808.94;;;21.07;95.29
7170;BME280;3626;42.656;23.312;2023-07-13T00:25:04;94806.31;;;21.07;95.16
7170;BME280;3626;42.656;23.312;2023-07-13T00:25:10;94804.47;;;21.08;95.01
7170;BME280;3626;42.656;23.312;2023-07-13T00:25:16;94800.22;;;21.07;94.94
7170;BME280;3626;42.656;23.312;2023-07-13T00:25:23;94805.47;;;21.07;94.76
7170;BME280;3626;42.656;23.312;2023-07-13T00:25:29;94807.09;;;21.08;94.66
7170;BME280;3626;42.656;23.312;2023-07-13T00:25:35;94801.84;;;21.08;94.52
7170;BME280;3626;42.656;23.312;2023-07-13T00:25:41;94802.84;;;21.07;94.57
7170;BME280;3626;42.656;23.312;2023-07-13T00:25:50;94801.84;;;21.08;94.46
7170;BME280;3626;42.656;23.312;2023-07-13T00:25:57;94804.69;;;21.06;94.24
7170;BME280;3626;42.656;23.312;2023-07-13T00:26:04;94799.44;;;21.06;94.32
7170;BME280;3626;42.656;23.312;2023-07-13T00:26:11;94806.50;;;21.06;94.17
7170;BME280;3626;42.656;23.312;2023-07-13T00:26:17;94809.13;;;21.06;94.24
7170;BME280;3626;42.656;23.312;2023-07-13T00:26:23;94801.25;;;21.06;94.00
7170;BME280;3626;42.656;23.312;2023-07-13T00:26:29;94805.47;;;21.07;94.03
7170;BME280;3626;42.656;23.312;2023-07-13T00:26:37;94801.84;;;21.08;93.85
7170;BME280;3626;42.656;23.312;2023-07-13T00:26:44;94806.50;;;21.06;93.79
7170;BME280;3626;42.656;23.312;2023-07-13T00:26:51;94801.25;;;21.06;93.73
7170;BME280;3626;42.656;23.312;2023-07-13T00:26:57;94804.69;;;21.06;93.83
7170;BME280;3626;42.656;23.312;2023-07-13T00:27:03;94807.31;;;21.06;93.78
7170;BME280;3626;42.656;23.312;2023-07-13T00:27:10;94802.06;;;21.06;93.65
7170;BME280;3626;42.656;23.312;2023-07-13T00:27:16;94796.81;;;21.06;93.63
7170;BME280;3626;42.656;23.312;2023-07-13T00:27:23;94801.50;;;21.04;93.57
7170;BME280;3626;42.656;23.312;2023-07-13T00:27:32;94802.31;;;21.05;93.50
7170;BME280;3626;42.656;23.312;2023-07-13T00:27:38;94798.09;;;21.04;93.48
7170;BME280;3626;42.656;23.312;2023-07-13T00:27:44;94805.97;;;21.04;93.49
7170;BME280;3626;42.656;23.312;2023-07-13T00:27:51;94800.72;;;21.04;93.46
7170;BME280;3626;42.656;23.312;2023-07-13T00:27:57;94803.34;;;21.04;93.57
7170;BME280;3626;42.656;23.312;2023-07-13T00:28:03;94804.13;;;21.04;93.47
7170;BME280;3626;42.656;23.312;2023-07-13T00:28:12;94803.09;;;21.05;93.27
7170;BME280;3626;42.656;23.312;2023-07-13T00:28:18;94800.47;;;21.05;93.31
7170;BME280;3626;42.656;23.312;2023-07-13T00:28:24;94800.47;;;21.05;93.29
7170;BME280;3626;42.656;23.312;2023-07-13T00:28:30;94794.44;;;21.05;93.38
7170;BME280;3626;42.656;23.312;2023-07-13T00:28:36;94805.72;;;21.05;93.45
7170;BME280;3626;42.656;23.312;2023-07-13T00:28:42;94805.72;;;21.05;93.51
7170;BME280;3626;42.656;23.312;2023-07-13T00:28:48;94802.84;;;21.07;93.81
7170;BME280;3626;42.656;23.312;2023-07-13T00:28:57;94803.88;;;21.06;93.96
7170;BME280;3626;42.656;23.312;2023-07-13T00:29:03;94806.31;;;21.07;93.96
7170;BME280;3626;42.656;23.312;2023-07-13T00:29:09;94804.69;;;21.06;94.22
7170;BME280;3626;42.656;23.312;2023-07-13T00:29:15;94805.47;;;21.07;94.04
7170;BME280;3626;42.656;23.312;2023-07-13T00:29:21;94797.84;;;21.05;94.10
7170;BME280;3626;42.656;23.312;2023-07-13T00:29:27;94807.31;;;21.06;94.03
7170;BME280;3626;42.656;23.312;2023-07-13T00:29:35;94804.69;;;21.06;93.88
7170;BME280;3626;42.656;23.312;2023-07-13T00:29:41;94805.47;;;21.07;93.79
7170;BME280;3626;42.656;23.312;2023-07-13T00:29:50;94801.25;;;21.06;93.95
7170;BME280;3626;42.656;23.312;2023-07-13T00:29:56;94805.47;;;21.07;93.81
7170;BME280;3626;42.656;23.312;2023-07-13T00:30:02;94804.47;;;21.08;93.75
7170;BME280;3626;42.656;23.312;2023-07-13T00:30:09;94801.84;;;21.08;93.77
7170;BME280;3626;42.656;23.312;2023-07-13T00:30:16;94806.06;;;21.09;93.66
7170;BME280;3626;42.656;23.312;2023-07-13T00:30:22;94801.06;;;21.07;93.71
7170;BME280;3626;42.656;23.312;2023-07-13T00:30:28;94802.66;;;21.08;93.72
7170;BME280;3626;42.656;23.312;2023-07-13T00:30:34;94801.06;;;21.07;93.75
7170;BME280;3626;42.656;23.312;2023-07-13T00:30:40;94803.44;;;21.09;93.71
7170;BME280;3626;42.656;23.312;2023-07-13T00:30:46;94804.47;;;21.08;93.68
7170;BME280;3626;42.656;23.312;2023-07-13T00:30:52;94801.84;;;21.08;93.69
7170;BME280;3626;42.656;23.312;2023-07-13T00:30:58;94801.84;;;21.08;93.74
7170;BME280;3626;42.656;23.312;2023-07-13T00:31:04;94795.81;;;21.07;93.68
7170;BME280;3626;42.656;23.312;2023-07-13T00:31:11;94797.59;;;21.07;93.77
7170;BME280;3626;42.656;23.312;2023-07-13T00:31:17;94800.22;;;21.07;93.92
7170;BME280;3626;42.656;23.312;2023-07-13T00:31:24;94802.84;;;21.07;94.13
7170;BME280;3626;42.656;23.312;2023-07-13T00:31:30;94798.44;;;21.07;94.34
7170;BME280;3626;42.656;23.312;2023-07-13T00:31:39;94806.50;;;21.06;94.94
7170;BME280;3626;42.656;23.312;2023-07-13T00:31:45;94804.13;;;21.04;95.68
7170;BME280;3626;42.656;23.312;2023-07-13T00:31:51;94803.34;;;21.04;96.18
7170;BME280;3626;42.656;23.312;2023-07-13T00:31:57;94804.38;;;21.03;96.57
7170;BME280;3626;42.656;23.312;2023-07-13T00:32:04;94802.75;;;21.02;97.03
7170;BME280;3626;42.656;23.312;2023-07-13T00:32:11;94804.56;;;21.01;97.38
7170;BME280;3626;42.656;23.312;2023-07-13T00:32:17;94802.19;;;21.00;97.48
7170;BME280;3626;42.656;23.312;2023-07-13T00:32:23;94800.59;;;20.99;97.51
7170;BME280;3626;42.656;23.312;2023-07-13T00:32:30;94802.38;;;20.98;97.33
7170;BME280;3626;42.656;23.312;2023-07-13T00:32:38;94800.81;;;20.97;96.93
7170;BME280;3626;42.656;23.312;2023-07-13T00:32:44;94798.41;;;20.95;96.63
7170;BME280;3626;42.656;23.312;2023-07-13T00:32:50;94795.00;;;20.95;96.51
7170;BME280;3626;42.656;23.312;2023-07-13T00:32:56;94799.44;;;20.94;96.32
7170;BME280;3626;42.656;23.312;2023-07-13T00:33:02;94800.25;;;20.95;96.29
7170;BME280;3626;42.656;23.312;2023-07-13T00:33:08;94801.03;;;20.95;96.21
7170;BME280;3626;42.656;23.312;2023-07-13T00:33:14;94800.25;;;20.95;96.06
7170;BME280;3626;42.656;23.312;2023-07-13T00:33:20;94801.25;;;20.94;95.99
7170;BME280;3626;42.656;23.312;2023-07-13T00:33:29;94799.44;;;20.94;95.94
7170;BME280;3626;42.656;23.312;2023-07-13T00:33:35;94798.63;;;20.94;95.86
7170;BME280;3626;42.656;23.312;2023-07-13T00:33:45;94798.84;;;20.92;95.75
7170;BME280;3626;42.656;23.312;2023-07-13T00:33:51;94805.69;;;20.93;95.73
7170;BME280;3626;42.656;23.312;2023-07-13T00:33:57;94799.66;;;20.93;95.58
7170;BME280;3626;42.656;23.312;2023-07-13T00:34:04;94797.81;;;20.93;95.58
7170;BME280;3626;42.656;23.312;2023-07-13T00:34:10;94800.69;;;20.92;95.55
7170;BME280;3626;42.656;23.312;2023-07-13T00:34:17;94803.06;;;20.93;95.58
7170;BME280;3626;42.656;23.312;2023-07-13T00:34:23;94800.44;;;20.93;95.56
7170;BME280;3626;42.656;23.312;2023-07-13T00:34:29;94802.06;;;20.94;95.48
7170;BME280;3626;42.656;23.312;2023-07-13T00:34:35;94800.44;;;20.93;95.65
7170;BME280;3626;42.656;23.312;2023-07-13T00:34:41;94804.69;;;20.94;95.35
7170;BME280;3626;42.656;23.312;2023-07-13T00:34:47;94809.94;;;20.94;95.31
7170;BME280;3626;42.656;23.312;2023-07-13T00:34:53;94805.50;;;20.95;95.36
7170;BME280;3626;42.656;23.312;2023-07-13T00:34:59;94793.16;;;20.95;95.34
7170;BME280;3626;42.656;23.312;2023-07-13T00:35:06;94804.47;;;20.96;95.38
7170;BME280;3626;42.656;23.312;2023-07-13T00:35:14;94802.63;;;20.96;95.31
7170;BME280;3626;42.656;23.312;2023-07-13T00:35:20;94802.63;;;20.96;95.13
7170;BME280;3626;42.656;23.312;2023-07-13T00:35:30;94808.66;;;20.97;95.16
7170;BME280;3626;42.656;23.312;2023-07-13T00:35:36;94800.81;;;20.97;94.99
7170;BME280;3626;42.656;23.312;2023-07-13T00:35:43;94800.59;;;20.99;95.05
7170;BME280;3626;42.656;23.312;2023-07-13T00:35:49;94799.78;;;20.98;94.96
7170;BME280;3626;42.656;23.312;2023-07-13T00:35:56;94798.75;;;20.99;94.93
7170;BME280;3626;42.656;23.312;2023-07-13T00:36:03;94795.34;;;20.99;94.90
7170;BME280;3626;42.656;23.312;2023-07-13T00:36:09;94797.72;;;21.00;94.83
7170;BME280;3626;42.656;23.312;2023-07-13T00:36:16;94797.72;;;21.00;94.87